Time;durP1;ratioP1;P1;durP2;ratioP2;P2;SDS_P1;SDS_P2;PMS_P1;PMS_P2;Temp;Humidity;BMP_temperature;BMP_pressure;BME280_temperature;BME280_humidity;BME280_pressure;Samples;Min_cycle;Max_cycle;Signal;HPM_P1;HPM_P2
2022/11/01 00:00:55;;;;;;;65.43;32.33;;;;;;;11.78;100.00;100943.31;2081088;28;38235;-79
2022/11/01 00:01:57;;;;;;;65.20;33.38;;;;;;;11.82;100.00;100950.34;2072159;28;28621;-79
2022/11/01 00:02:59;;;;;;;63.25;33.72;;;;;;;11.80;100.00;100945.00;2073232;28;32917;-80
2022/11/01 00:04:00;;;;;;;67.03;32.30;;;;;;;11.81;100.00;100941.41;2081193;28;35716;-80
2022/11/01 00:05:02;;;;;;;72.07;33.78;;;;;;;11.83;100.00;100939.56;2080814;28;29981;-80
2022/11/01 00:06:04;;;;;;;65.55;33.42;;;;;;;11.82;100.00;100937.78;2088536;28;36024;-80
2022/11/01 00:07:06;;;;;;;72.22;34.30;;;;;;;11.82;100.00;100929.75;2089073;28;33119;-81
2022/11/01 00:08:08;;;;;;;71.47;33.60;;;;;;;11.82;100.00;100931.56;2088709;28;32398;-81
2022/11/01 00:09:12;;;;;;;70.88;33.45;;;;;;;11.81;100.00;100933.38;2088860;28;26811;-81
2022/11/01 00:10:14;;;;;;;64.15;33.78;;;;;;;11.78;100.00;100927.22;2088338;28;31270;-80
2022/11/01 00:11:21;;;;;;;70.18;35.13;;;;;;;11.78;100.00;100927.22;2090192;28;20084;-79
2022/11/01 00:12:22;;;;;;;71.78;34.03;;;;;;;11.76;100.00;100921.88;2088406;28;35509;-80
2022/11/01 00:13:24;;;;;;;66.47;33.25;;;;;;;11.75;100.00;100933.53;2089193;28;33545;-80
2022/11/01 00:14:30;;;;;;;72.28;34.58;;;;;;;11.74;100.00;100929.09;2088990;28;33131;-81
2022/11/01 00:15:32;;;;;;;71.13;33.30;;;;;;;11.73;100.00;100929.13;2088203;28;35247;-79
2022/11/01 00:16:34;;;;;;;74.15;34.85;;;;;;;11.72;100.00;100930.94;2088377;28;37353;-80
2022/11/01 00:17:35;;;;;;;70.05;33.70;;;;;;;11.68;100.00;100931.94;2089007;28;31943;-80
2022/11/01 00:18:38;;;;;;;73.10;34.03;;;;;;;11.70;100.00;100938.16;2081921;28;29434;-80
2022/11/01 00:19:40;;;;;;;64.55;32.22;;;;;;;11.64;100.00;100933.81;2080739;28;30486;-80
2022/11/01 00:20:42;;;;;;;66.47;33.50;;;;;;;11.62;100.00;100932.13;2080513;28;38061;-82
2022/11/01 00:21:44;;;;;;;66.80;34.15;;;;;;;11.60;100.00;100937.53;2080446;28;35773;-80
2022/11/01 00:22:46;;;;;;;72.82;34.65;;;;;;;11.61;100.00;100933.03;2080316;28;40558;-80
2022/11/01 00:23:48;;;;;;;69.13;33.85;;;;;;;11.58;100.00;100928.66;2080971;28;23128;-80
2022/11/01 00:24:49;;;;;;;71.45;34.25;;;;;;;11.58;100.00;100931.31;2080759;28;36627;-79
2022/11/01 00:25:53;;;;;;;72.07;33.92;;;;;;;11.60;100.00;100933.97;2079728;28;34540;-79
2022/11/01 00:26:55;;;;;;;73.72;35.17;;;;;;;11.57;100.00;100937.59;2080489;28;31553;-81
2022/11/01 00:27:57;;;;;;;70.28;34.33;;;;;;;11.56;100.00;100929.63;2088154;28;39090;-79
2022/11/01 00:28:59;;;;;;;71.82;33.95;;;;;;;11.54;100.00;100923.38;2080823;28;20943;-80
2022/11/01 00:30:01;;;;;;;78.72;35.28;;;;;;;11.55;100.00;100926.03;2080504;28;21145;-79
2022/11/01 00:31:02;;;;;;;72.90;35.20;;;;;;;11.53;100.00;100925.19;2088125;28;36842;-79
2022/11/01 00:32:06;;;;;;;71.05;34.75;;;;;;;11.52;100.00;100922.56;2088093;28;29764;-79
2022/11/01 00:33:07;;;;;;;77.13;35.33;;;;;;;11.52;100.00;100923.47;2080357;28;35376;-79
2022/11/01 00:34:09;;;;;;;77.55;36.22;;;;;;;11.53;100.00;100924.34;2080794;28;39806;-78
2022/11/01 00:35:11;;;;;;;75.15;35.97;;;;;;;11.52;100.00;100927.91;2080790;28;29477;-79
2022/11/01 00:36:14;;;;;;;79.38;37.20;;;;;;;11.53;100.00;100932.38;2079804;28;42738;-81
2022/11/01 00:37:15;;;;;;;69.30;34.67;;;;;;;11.51;100.00;100920.81;2080007;28;36155;-81
2022/11/01 00:38:18;;;;;;;75.38;37.03;;;;;;;11.55;100.00;100914.44;2080568;28;33516;-81
2022/11/01 00:39:20;;;;;;;78.65;36.15;;;;;;;11.56;100.00;100918.91;2080202;28;31535;-79
2022/11/01 00:40:21;;;;;;;75.68;35.97;;;;;;;11.56;100.00;100924.25;2072249;28;32344;-80
2022/11/01 00:41:25;;;;;;;76.65;35.78;;;;;;;11.53;100.00;100917.16;2079786;28;32301;-81
2022/11/01 00:42:28;;;;;;;83.05;36.35;;;;;;;11.55;100.00;100909.06;2081774;28;20045;-79
2022/11/01 00:43:32;;;;;;;74.32;35.30;;;;;;;11.52;100.00;100911.84;2080874;28;30674;-81
2022/11/01 00:44:34;;;;;;;81.88;36.38;;;;;;;11.52;100.00;100912.72;2080381;28;29561;-81
2022/11/01 00:45:35;;;;;;;79.07;36.08;;;;;;;11.49;100.00;100918.19;2089059;28;20819;-79
2022/11/01 00:46:37;;;;;;;76.90;35.35;;;;;;;11.49;100.00;100912.81;2088116;28;33920;-78
2022/11/01 00:47:39;;;;;;;81.90;36.53;;;;;;;11.53;100.00;100910.94;2080273;28;36506;-79
2022/11/01 00:48:40;;;;;;;73.75;34.45;;;;;;;11.51;100.00;100910.09;2080331;28;27852;-81
2022/11/01 00:49:42;;;;;;;71.43;35.20;;;;;;;11.49;100.00;100912.81;2087889;28;31137;-80
2022/11/01 00:50:44;;;;;;;73.35;35.50;;;;;;;11.50;100.00;100908.31;2088256;28;30618;-79
2022/11/01 00:51:47;;;;;;;77.03;37.70;;;;;;;11.50;100.00;100913.69;2080582;28;35842;-80
2022/11/01 00:52:49;;;;;;;78.32;35.80;;;;;;;11.48;100.00;100905.66;2080591;28;36457;-80
2022/11/01 00:53:51;;;;;;;73.90;34.80;;;;;;;11.49;100.00;100902.09;2079521;28;34261;-79
2022/11/01 00:54:53;;;;;;;87.55;37.28;;;;;;;11.50;100.00;100903.81;2079968;28;33598;-80
2022/11/01 00:56:06;;;;;;;77.65;35.55;;;;;;;11.49;100.00;100899.41;2080800;28;32055;-79
2022/11/01 00:57:07;;;;;;;80.38;37.10;;;;;;;11.50;100.00;100898.47;2080617;28;34145;-79
2022/11/01 00:58:09;;;;;;;76.32;34.20;;;;;;;11.49;100.00;100895.84;2080373;28;42146;-79
2022/11/01 00:59:11;;;;;;;80.07;35.92;;;;;;;11.53;100.00;100892.16;2080294;28;37207;-79
2022/11/01 01:00:14;;;;;;;79.25;36.00;;;;;;;11.53;100.00;100892.16;2080541;28;35880;-79
2022/11/01 01:01:15;;;;;;;77.07;36.30;;;;;;;11.54;100.00;100894.81;2080522;28;39362;-79
2022/11/01 01:02:17;;;;;;;76.78;35.67;;;;;;;11.53;100.00;100887.66;2080553;28;31099;-79
2022/11/01 01:03:22;;;;;;;76.35;35.22;;;;;;;11.55;100.00;100895.66;2080533;28;40047;-79
2022/11/01 01:04:23;;;;;;;82.05;37.35;;;;;;;11.54;100.00;100896.56;2079733;28;35711;-78
2022/11/01 01:05:25;;;;;;;71.78;35.30;;;;;;;11.55;100.00;100893.84;2080134;28;31030;-80
2022/11/01 01:06:27;;;;;;;69.68;33.38;;;;;;;11.56;100.00;100901.00;2080262;28;36964;-79
2022/11/01 01:07:29;;;;;;;74.03;35.63;;;;;;;11.56;100.00;100886.72;2080613;28;30961;-79
2022/11/01 01:08:31;;;;;;;73.78;34.80;;;;;;;11.57;100.00;100886.66;2080156;28;34624;-79
2022/11/01 01:09:32;;;;;;;75.15;34.42;;;;;;;11.59;100.00;100883.94;2080591;28;35919;-79
2022/11/01 01:10:35;;;;;;;78.35;35.17;;;;;;;11.58;100.00;100883.06;2080744;28;37240;-79
2022/11/01 01:11:39;;;;;;;72.93;36.28;;;;;;;11.60;100.00;100883.03;2081064;28;20042;-78
2022/11/01 01:12:40;;;;;;;76.28;36.22;;;;;;;11.62;100.00;100884.72;2080687;28;29122;-79
2022/11/01 01:13:42;;;;;;;77.10;34.80;;;;;;;11.62;100.00;100883.84;2080320;28;35860;-79
2022/11/01 01:14:44;;;;;;;71.80;34.80;;;;;;;11.65;100.00;100875.72;2080559;28;31064;-78
2022/11/01 01:15:46;;;;;;;72.30;35.00;;;;;;;11.64;100.00;100874.81;2080612;28;34668;-80
2022/11/01 01:16:50;;;;;;;72.78;34.28;;;;;;;11.63;100.00;100869.53;2080408;28;33328;-81
2022/11/01 01:17:54;;;;;;;72.80;34.70;;;;;;;11.67;100.00;100878.38;2080532;28;29683;-80
2022/11/01 01:18:57;;;;;;;71.57;34.13;;;;;;;11.65;100.00;100867.69;2080163;28;31804;-81
2022/11/01 01:19:58;;;;;;;79.28;36.30;;;;;;;11.68;100.00;100870.25;2079713;28;34212;-80
2022/11/01 01:21:05;;;;;;;69.13;33.97;;;;;;;11.71;100.00;100877.34;2080464;28;31230;-78
2022/11/01 01:22:07;;;;;;;75.70;34.20;;;;;;;11.74;100.00;100870.09;2079988;28;32491;-79
2022/11/01 01:23:11;;;;;;;75.28;34.63;;;;;;;11.73;100.00;100871.00;2078851;28;36319;-79
2022/11/01 01:24:13;;;;;;;71.47;33.55;;;;;;;11.74;100.00;100870.09;2080286;28;31686;-78
2022/11/01 01:25:15;;;;;;;75.10;33.47;;;;;;;11.76;100.00;100872.72;2080696;28;31151;-78
2022/11/01 01:26:17;;;;;;;70.10;34.13;;;;;;;11.76;100.00;100865.56;2080218;28;37237;-78
2022/11/01 01:27:19;;;;;;;68.72;33.70;;;;;;;11.74;100.00;100867.41;2080281;28;40101;-78
2022/11/01 01:28:23;;;;;;;68.43;34.20;;;;;;;11.74;100.00;100864.72;2079823;28;33327;-79
2022/11/01 01:29:25;;;;;;;64.60;33.10;;;;;;;11.75;100.00;100866.47;2079310;28;39478;-78
2022/11/01 01:30:27;;;;;;;66.80;33.83;;;;;;;11.77;100.00;100864.66;2080548;28;30069;-79
2022/11/01 01:31:29;;;;;;;71.05;33.55;;;;;;;11.74;100.00;100867.41;2079931;28;27683;-78
2022/11/01 01:32:30;;;;;;;68.85;33.95;;;;;;;11.75;100.00;100858.41;2079752;28;31485;-79
2022/11/01 01:33:32;;;;;;;62.25;31.92;;;;;;;11.74;100.00;100854.00;2080551;28;26796;-78
2022/11/01 01:34:34;;;;;;;62.95;31.98;;;;;;;11.71;100.00;100862.13;2079075;28;38546;-80
2022/11/01 01:35:37;;;;;;;68.10;34.25;;;;;;;11.73;100.00;100852.22;2079706;28;33820;-79
2022/11/01 01:36:39;;;;;;;65.68;32.35;;;;;;;11.73;100.00;100852.22;2079703;28;29741;-78
2022/11/01 01:37:41;;;;;;;64.30;32.03;;;;;;;11.73;100.00;100851.34;2079510;28;33409;-78
2022/11/01 01:38:45;;;;;;;69.63;31.98;;;;;;;11.76;100.00;100852.16;2080047;28;20041;-78
2022/11/01 01:39:47;;;;;;;71.93;34.58;;;;;;;11.75;100.00;100850.38;2079446;28;35260;-78
2022/11/01 01:40:48;;;;;;;67.03;34.90;;;;;;;11.77;100.00;100847.66;2072124;28;20831;-78
2022/11/01 01:41:56;;;;;;;66.68;33.30;;;;;;;11.77;100.00;100845.88;2071771;28;33396;-78
2022/11/01 01:42:58;;;;;;;66.35;31.85;;;;;;;11.76;100.00;100844.09;2080326;28;36042;-78
2022/11/01 01:44:00;;;;;;;63.47;33.00;;;;;;;11.78;100.00;100844.94;2079705;28;37366;-79
2022/11/01 01:45:26;;;;;;;63.80;31.33;;;;;;;11.77;100.00;100850.34;2079648;28;29137;-79
2022/11/01 01:46:27;;;;;;;65.40;33.55;;;;;;;11.78;100.00;100850.28;2081215;28;20038;-79
2022/11/01 01:47:33;;;;;;;65.00;31.95;;;;;;;11.78;100.00;100850.28;2080589;28;27205;-79
2022/11/01 01:48:37;;;;;;;69.18;32.28;;;;;;;11.78;100.00;100850.28;2080668;28;29254;-78
2022/11/01 01:49:39;;;;;;;65.60;32.85;;;;;;;11.77;100.00;100845.88;2079353;28;31537;-78
2022/11/01 01:51:03;;;;;;;65.90;33.03;;;;;;;11.75;100.00;100844.13;2079422;28;37400;-79
2022/11/01 01:52:05;;;;;;;68.20;32.90;;;;;;;11.76;100.00;100845.91;2079923;28;37330;-79
2022/11/01 01:53:21;;;;;;;65.53;32.20;;;;;;;11.74;100.00;100851.31;2080045;28;32685;-78
2022/11/01 01:54:23;;;;;;;60.85;31.77;;;;;;;11.74;100.00;100859.38;2079700;28;37359;-78
2022/11/01 01:55:39;;;;;;;58.10;29.65;;;;;;;11.70;100.00;100856.81;2079768;28;37098;-78
2022/11/01 01:56:43;;;;;;;59.80;30.38;;;;;;;11.69;100.00;100855.06;2080360;28;30619;-78
2022/11/01 01:57:46;;;;;;;67.78;32.83;;;;;;;11.74;100.00;100835.22;2079466;28;31679;-79
2022/11/01 01:59:09;;;;;;;62.90;32.05;;;;;;;11.79;100.00;100840.44;2079864;28;34265;-78
2022/11/01 02:00:11;;;;;;;66.05;32.65;;;;;;;11.79;100.00;100832.38;2079467;28;33592;-80
2022/11/01 02:01:14;;;;;;;60.65;32.08;;;;;;;11.79;100.00;100844.03;2080217;28;20030;-80
2022/11/01 02:02:17;;;;;;;58.53;31.08;;;;;;;11.76;100.00;100836.06;2079844;28;20038;-79
2022/11/01 02:03:24;;;;;;;66.32;32.33;;;;;;;11.80;100.00;100826.97;2079939;28;20097;-79
2022/11/01 02:04:57;;;;;;;62.20;31.02;;;;;;;11.78;100.00;100828.84;2080325;28;29382;-80
2022/11/01 02:06:16;;;;;;;64.85;31.63;;;;;;;11.79;100.00;100829.69;2078696;28;34196;-79
2022/11/01 02:07:19;;;;;;;58.55;30.38;;;;;;;11.81;100.00;100826.06;2071425;28;30629;-80
2022/11/01 02:08:28;;;;;;;61.05;31.90;;;;;;;11.81;100.00;100823.38;2071945;28;20046;-79
2022/11/01 02:09:31;;;;;;;58.35;29.90;;;;;;;11.76;100.00;100819.09;2071417;28;40091;-80
2022/11/01 02:10:34;;;;;;;58.97;29.02;;;;;;;11.74;100.00;100816.44;2071896;28;36102;-80
2022/11/01 02:11:35;;;;;;;61.22;30.98;;;;;;;11.73;100.00;100819.16;2079845;28;29401;-79
2022/11/01 02:12:43;;;;;;;58.85;31.70;;;;;;;11.72;100.00;100815.63;2080081;28;20045;-79
2022/11/01 02:13:45;;;;;;;59.78;30.85;;;;;;;11.73;100.00;100816.50;2080240;28;20050;-80
2022/11/01 02:14:47;;;;;;;63.20;31.90;;;;;;;11.71;100.00;100811.16;2078877;28;38468;-80
2022/11/01 02:16:38;;;;;;;60.30;30.58;;;;;;;11.74;100.00;100810.22;2080539;28;27878;-79
2022/11/01 02:17:59;;;;;;;54.85;29.08;;;;;;;11.73;100.00;100803.06;2070351;28;39259;-79
2022/11/01 02:19:57;;;;;;;52.92;28.20;;;;;;;11.74;100.00;100800.34;2082037;28;32928;-79
2022/11/01 02:21:29;;;;;;;50.95;27.58;;;;;;;11.77;100.00;100800.28;2079848;28;34415;-79
2022/11/01 02:22:55;;;;;;;61.05;30.02;;;;;;;11.77;100.00;100805.63;2079911;28;36573;-77
2022/11/01 02:24:39;;;;;;;58.65;28.50;;;;;;;11.75;100.00;100795.88;2087374;28;39260;-79
2022/11/01 02:26:39;;;;;;;59.42;29.15;;;;;;;11.77;100.00;100788.63;2079664;28;20439;-79
2022/11/01 02:27:58;;;;;;;51.25;26.88;;;;;;;11.77;100.00;100784.19;2070620;28;29977;-79
2022/11/01 02:29:51;;;;;;;56.67;28.17;;;;;;;11.81;100.00;100780.47;2079530;28;41502;-79
2022/11/01 02:31:07;;;;;;;57.72;28.40;;;;;;;11.84;100.00;100785.75;2070208;28;35823;-79
2022/11/01 02:32:25;;;;;;;53.80;28.00;;;;;;;11.84;100.00;100791.13;2079714;28;33937;-79
2022/11/01 02:33:41;;;;;;;55.17;27.58;;;;;;;11.83;100.00;100783.09;2080324;28;22924;-79
2022/11/01 02:35:30;;;;;;;57.92;27.10;;;;;;;11.82;100.00;100789.38;2080315;28;33635;-79
2022/11/01 02:36:42;;;;;;;51.05;25.85;;;;;;;11.85;100.00;100786.63;2062673;28;37564;-79
2022/11/01 02:37:59;;;;;;;58.78;28.45;;;;;;;11.90;100.00;100775.72;2071251;28;25175;-79
2022/11/01 02:39:20;;;;;;;52.17;26.10;;;;;;;11.88;100.00;100774.91;2077115;28;33255;-79
2022/11/01 02:41:02;;;;;;;49.80;26.25;;;;;;;11.91;100.00;100769.47;2079659;28;34010;-79
2022/11/01 02:42:15;;;;;;;51.65;25.95;;;;;;;11.92;100.00;100771.25;2079133;28;30106;-79
2022/11/01 02:43:29;;;;;;;44.95;25.77;;;;;;;11.91;100.00;100775.72;2075556;28;34355;-79
2022/11/01 02:44:40;;;;;;;45.63;25.48;;;;;;;11.90;100.00;100773.03;2079670;28;31498;-79
2022/11/01 02:45:48;;;;;;;52.58;26.45;;;;;;;11.92;100.00;100766.75;2079271;28;34330;-79
2022/11/01 02:47:02;;;;;;;46.60;25.98;;;;;;;11.95;100.00;100771.13;2079772;28;27683;-79
2022/11/01 02:48:05;;;;;;;49.83;24.58;;;;;;;11.96;100.00;100773.78;2081730;28;20047;-79
2022/11/01 02:49:12;;;;;;;49.30;26.80;;;;;;;11.96;100.00;100768.41;2088073;28;38569;-79
2022/11/01 02:50:14;;;;;;;49.38;26.05;;;;;;;11.97;100.00;100769.28;2087179;28;37161;-79
2022/11/01 02:51:21;;;;;;;49.83;25.13;;;;;;;11.98;100.00;100763.88;2087594;28;36159;-79
2022/11/01 02:52:27;;;;;;;50.70;26.73;;;;;;;11.98;100.00;100761.19;2087481;28;36884;-79
2022/11/01 02:53:31;;;;;;;48.45;25.48;;;;;;;11.97;100.00;100762.13;2087578;28;29635;-79
2022/11/01 02:54:43;;;;;;;46.85;26.13;;;;;;;12.01;100.00;100749.50;2086939;28;41020;-79
2022/11/01 02:55:45;;;;;;;39.92;25.08;;;;;;;12.05;100.00;100761.00;2088190;28;25374;-79
2022/11/01 02:56:48;;;;;;;42.95;22.85;;;;;;;12.04;100.00;100754.72;2087268;28;36723;-79
2022/11/01 02:57:50;;;;;;;48.90;25.40;;;;;;;12.05;100.00;100748.47;2087718;28;30239;-79
2022/11/01 02:58:53;;;;;;;39.67;22.83;;;;;;;12.06;100.00;100750.22;2087341;28;34340;-79
2022/11/01 03:00:03;;;;;;;42.05;23.73;;;;;;;12.09;100.00;100739.38;2087576;28;31892;-79
2022/11/01 03:01:14;;;;;;;43.85;24.77;;;;;;;12.12;100.00;100731.22;2080182;28;33482;-79
2022/11/01 03:02:40;;;;;;;44.63;23.65;;;;;;;12.14;100.00;100739.22;2080029;28;20077;-79
2022/11/01 03:03:46;;;;;;;40.83;22.08;;;;;;;12.15;100.00;100744.56;2079467;28;31647;-79
2022/11/01 03:04:48;;;;;;;36.78;21.23;;;;;;;12.16;100.00;100732.88;2079844;28;20041;-79
2022/11/01 03:06:01;;;;;;;48.03;24.08;;;;;;;12.17;100.00;100748.06;2079325;28;41400;-79
2022/11/01 03:07:10;;;;;;;42.05;23.17;;;;;;;12.15;100.00;100749.91;2079475;28;33575;-79
2022/11/01 03:08:19;;;;;;;42.95;23.10;;;;;;;12.16;100.00;100735.56;2079169;28;36183;-79
2022/11/01 03:09:21;;;;;;;39.20;22.98;;;;;;;12.19;100.00;100738.16;2078974;28;34010;-78
2022/11/01 03:10:36;;;;;;;40.03;22.33;;;;;;;12.22;100.00;100731.78;2079888;28;20026;-78
2022/11/01 03:11:56;;;;;;;41.20;22.40;;;;;;;12.24;100.00;100740.69;2078901;28;33692;-79
2022/11/01 03:13:12;;;;;;;36.58;21.90;;;;;;;12.26;100.00;100738.84;2079258;28;21849;-78
2022/11/01 03:14:40;;;;;;;40.92;21.45;;;;;;;12.28;100.00;100736.97;2078895;28;30499;-78
2022/11/01 03:15:53;;;;;;;42.42;22.13;;;;;;;12.30;100.00;100731.56;2079115;28;35163;-78
2022/11/01 03:17:17;;;;;;;44.85;21.95;;;;;;;12.33;100.00;100743.06;2079918;28;34914;-79
2022/11/01 03:18:30;;;;;;;43.22;22.05;;;;;;;12.33;100.00;100740.38;2079974;28;20049;-78
2022/11/01 03:20:00;;;;;;;35.75;21.30;;;;;;;12.31;100.00;100752.09;2079091;28;31943;-79
2022/11/01 03:21:15;;;;;;;37.28;19.48;;;;;;;12.29;100.00;100743.22;2079786;28;23806;-78
2022/11/01 03:22:49;;;;;;;37.17;22.25;;;;;;;12.28;100.00;100746.84;2070535;28;41579;-78
2022/11/01 03:24:16;;;;;;;40.75;21.58;;;;;;;12.25;100.00;100747.81;2076188;28;35890;-78
2022/11/01 03:25:41;;;;;;;36.42;21.65;;;;;;;12.28;100.00;100746.84;2078873;28;33046;-79
2022/11/01 03:26:49;;;;;;;38.67;21.35;;;;;;;12.28;100.00;100744.16;2079646;28;31395;-79
2022/11/01 03:27:52;;;;;;;36.13;20.48;;;;;;;12.28;100.00;100736.09;2079433;28;20876;-79
2022/11/01 03:29:26;;;;;;;36.30;19.67;;;;;;;12.29;100.00;100729.78;2079723;28;38986;-79
2022/11/01 03:31:20;;;;;;;34.30;20.90;;;;;;;12.30;100.00;100731.56;2081277;28;20038;-79
2022/11/01 03:32:28;;;;;;;33.33;20.17;;;;;;;12.28;100.00;100738.78;2079433;28;35453;-78
2022/11/01 03:33:34;;;;;;;40.67;20.63;;;;;;;12.29;100.00;100743.22;2079564;28;28335;-78
2022/11/01 03:34:37;;;;;;;38.13;20.20;;;;;;;12.29;100.00;100746.78;2080175;28;39209;-79
2022/11/01 03:35:44;;;;;;;32.05;19.70;;;;;;;12.31;100.00;100736.88;2072484;28;20780;-79
2022/11/01 03:36:52;;;;;;;33.65;19.40;;;;;;;12.34;100.00;100747.50;2066720;28;22879;-79
2022/11/01 03:38:05;;;;;;;27.85;18.50;;;;;;;12.36;100.00;100739.38;2074845;28;20030;-78
2022/11/01 03:39:43;;;;;;;29.90;19.08;;;;;;;12.37;100.00;100751.91;2081095;28;20046;-78
2022/11/01 03:41:00;;;;;;;32.40;18.98;;;;;;;12.37;100.00;100746.53;2083071;28;30953;-79
2022/11/01 03:42:09;;;;;;;28.25;18.05;;;;;;;12.35;100.00;100743.88;2090129;28;20038;-78
2022/11/01 03:43:15;;;;;;;35.45;19.02;;;;;;;12.39;100.00;100733.94;2088623;28;37581;-79
2022/11/01 03:44:18;;;;;;;31.67;18.25;;;;;;;12.39;100.00;100733.94;2082507;28;28831;-79
2022/11/01 03:45:24;;;;;;;32.08;17.80;;;;;;;12.42;100.00;100739.19;2088534;28;37716;-79
2022/11/01 03:46:31;;;;;;;28.95;17.67;;;;;;;12.40;100.00;100733.88;2088901;28;20164;-79
2022/11/01 03:47:34;;;;;;;31.65;17.27;;;;;;;12.40;100.00;100733.88;2089102;28;26096;-78
2022/11/01 03:48:40;;;;;;;31.65;17.23;;;;;;;12.38;100.00;100724.09;2088614;28;31926;-79
2022/11/01 03:49:44;;;;;;;35.95;18.08;;;;;;;12.39;100.00;100723.19;2081197;28;37434;-79
2022/11/01 03:50:51;;;;;;;27.63;16.90;;;;;;;12.41;100.00;100737.44;2088240;28;36960;-78
2022/11/01 03:51:53;;;;;;;25.75;16.80;;;;;;;12.40;100.00;100733.88;2089300;28;32878;-78
2022/11/01 03:52:57;;;;;;;33.80;18.13;;;;;;;12.41;100.00;100732.94;2088993;28;20953;-79
2022/11/01 03:53:58;;;;;;;27.27;16.73;;;;;;;12.41;100.00;100724.00;2088243;28;32276;-79
2022/11/01 03:55:16;;;;;;;28.55;17.08;;;;;;;12.41;100.00;100716.81;2079891;28;33486;-79
2022/11/01 03:56:18;;;;;;;25.30;15.63;;;;;;;12.45;100.00;100719.41;2089072;28;32854;-78
2022/11/01 03:57:20;;;;;;;28.25;16.15;;;;;;;12.43;100.00;100724.81;2088878;28;33663;-79
2022/11/01 03:58:24;;;;;;;28.05;16.38;;;;;;;12.46;100.00;100721.19;2089537;28;24774;-79
2022/11/01 03:59:27;;;;;;;28.20;16.27;;;;;;;12.46;100.00;100727.41;2090337;28;20176;-79
2022/11/01 04:00:35;;;;;;;26.05;15.63;;;;;;;12.47;100.00;100729.19;2088408;28;38355;-78
2022/11/01 04:01:36;;;;;;;27.65;16.98;;;;;;;12.50;100.00;100736.25;2081413;28;32523;-79
2022/11/01 04:02:38;;;;;;;23.40;16.17;;;;;;;12.52;100.00;100731.69;2088398;28;38406;-79
2022/11/01 04:03:41;;;;;;;21.65;14.23;;;;;;;12.51;100.00;100729.97;2087691;28;38859;-79
2022/11/01 04:04:42;;;;;;;26.77;16.08;;;;;;;12.51;100.00;100728.13;2089939;28;20780;-79
2022/11/01 04:05:44;;;;;;;25.38;15.88;;;;;;;12.51;100.00;100729.97;2088901;28;33059;-79
2022/11/01 04:06:50;;;;;;;23.98;15.55;;;;;;;12.55;100.00;100729.78;2089700;28;20902;-78
2022/11/01 04:07:52;;;;;;;27.95;15.88;;;;;;;12.54;100.00;100727.16;2089139;28;33662;-79
2022/11/01 04:08:57;;;;;;;26.77;15.95;;;;;;;12.53;100.00;100731.66;2088053;28;37249;-79
2022/11/01 04:09:59;;;;;;;26.73;14.70;;;;;;;12.54;100.00;100730.72;2088506;28;31899;-79
2022/11/01 04:11:01;;;;;;;29.58;15.88;;;;;;;12.56;100.00;100736.03;2089409;28;28963;-79
2022/11/01 04:12:03;;;;;;;26.90;15.45;;;;;;;12.57;100.00;100737.78;2088835;28;38841;-79
2022/11/01 04:13:04;;;;;;;22.08;14.13;;;;;;;12.57;100.00;100744.03;2089915;28;20049;-79
2022/11/01 04:21:22;;;;;;;25.08;13.95;;;;;;;12.66;100.00;100747.34;2089923;28;20044;-80
2022/11/01 04:22:23;;;;;;;23.40;13.15;;;;;;;12.65;100.00;100754.53;2089038;28;32919;-79
2022/11/01 04:23:25;;;;;;;23.30;13.90;;;;;;;12.65;100.00;100759.00;2089127;28;30797;-80
2022/11/01 04:24:29;;;;;;;24.67;15.07;;;;;;;12.66;100.00;100748.22;2088767;28;29390;-81
2022/11/01 04:25:34;;;;;;;26.67;15.30;;;;;;;12.68;100.00;100750.84;2088991;28;36802;-80
2022/11/01 04:26:37;;;;;;;21.90;14.40;;;;;;;12.68;100.00;100753.53;2089870;28;21005;-80
2022/11/01 04:27:38;;;;;;;21.25;13.10;;;;;;;12.68;100.00;100750.84;2088700;28;37225;-78
2022/11/01 04:28:40;;;;;;;27.48;13.98;;;;;;;12.70;100.00;100741.78;2089150;28;28248;-78
2022/11/01 04:29:42;;;;;;;23.20;13.75;;;;;;;12.70;100.00;100739.09;2089083;28;30790;-78
2022/11/01 04:30:44;;;;;;;24.55;14.00;;;;;;;12.71;100.00;100756.13;2088783;28;33405;-78
2022/11/01 04:31:46;;;;;;;22.40;13.30;;;;;;;12.71;100.00;100745.38;2089656;28;36098;-78
2022/11/01 04:32:48;;;;;;;24.67;13.63;;;;;;;12.72;100.00;100739.97;2087931;28;20172;-81
2022/11/01 04:33:51;;;;;;;22.80;13.93;;;;;;;12.73;100.00;100740.81;2088988;28;20258;-79
2022/11/01 04:34:52;;;;;;;22.80;14.07;;;;;;;12.73;100.00;100754.25;2079764;28;34678;-80
2022/11/01 04:35:56;;;;;;;21.05;13.55;;;;;;;12.73;100.00;100744.38;2080398;28;29232;-80
2022/11/01 04:36:58;;;;;;;25.15;13.07;;;;;;;12.77;100.00;100746.00;2088702;28;34628;-80
2022/11/01 04:38:00;;;;;;;20.73;13.27;;;;;;;12.82;100.00;100747.69;2089172;28;34514;-81
2022/11/01 04:39:02;;;;;;;20.52;12.75;;;;;;;12.81;100.00;100741.41;2088395;28;38159;-80
2022/11/01 04:40:07;;;;;;;20.65;12.13;;;;;;;12.82;100.00;100739.63;2088660;28;32663;-80
2022/11/01 04:41:10;;;;;;;19.55;12.05;;;;;;;12.83;100.00;100734.19;2088957;28;20056;-80
2022/11/01 04:42:11;;;;;;;20.35;13.35;;;;;;;12.83;100.00;100738.69;2088305;28;38475;-80
2022/11/01 04:43:13;;;;;;;23.65;11.55;;;;;;;12.83;100.00;100736.88;2088683;28;37477;-80
2022/11/01 04:44:14;;;;;;;20.85;12.15;;;;;;;12.86;100.00;100747.50;2089107;28;30288;-80
2022/11/01 04:45:16;;;;;;;21.50;12.30;;;;;;;12.88;100.00;100742.94;2088404;28;39240;-80
2022/11/01 04:46:18;;;;;;;19.33;11.57;;;;;;;12.89;100.00;100741.16;2088299;28;37361;-79
2022/11/01 04:47:20;;;;;;;18.55;12.25;;;;;;;12.90;100.00;100746.50;2088726;28;31441;-80
2022/11/01 04:48:22;;;;;;;19.95;11.40;;;;;;;12.94;100.00;100745.44;2088840;28;36071;-78
2022/11/01 04:49:24;;;;;;;20.65;12.05;;;;;;;12.94;100.00;100744.56;2087558;28;36402;-79
2022/11/01 04:50:26;;;;;;;17.55;10.80;;;;;;;12.92;100.00;100744.63;2088457;28;34268;-80
2022/11/01 04:51:28;;;;;;;17.10;11.27;;;;;;;12.92;100.00;100736.56;2088739;28;29944;-80
2022/11/01 04:52:30;;;;;;;15.77;11.10;;;;;;;12.95;100.00;100739.09;2088576;28;29572;-80
2022/11/01 04:53:32;;;;;;;18.38;10.52;;;;;;;12.95;100.00;100733.72;2088212;28;33446;-80
2022/11/01 04:54:33;;;;;;;18.00;10.80;;;;;;;12.96;100.00;100740.88;2087998;28;27952;-80
2022/11/01 04:55:35;;;;;;;18.20;10.18;;;;;;;12.97;100.00;100742.66;2088624;28;28564;-80
2022/11/01 04:56:37;;;;;;;17.60;10.05;;;;;;;13.04;100.00;100745.97;2088562;28;29651;-79
2022/11/01 04:57:41;;;;;;;25.00;10.82;;;;;;;13.06;100.00;100745.91;2088332;28;28973;-80
2022/11/01 04:58:43;;;;;;;18.80;10.55;;;;;;;13.04;100.00;100747.78;2088887;28;32167;-80
2022/11/01 04:59:47;;;;;;;18.00;10.50;;;;;;;13.06;100.00;100752.16;2088141;28;38500;-80
2022/11/01 05:00:49;;;;;;;16.55;9.32;;;;;;;13.05;100.00;100749.56;2089375;28;20941;-80
2022/11/01 05:01:50;;;;;;;15.55;9.43;;;;;;;13.04;100.00;100743.28;2088460;28;37017;-80
2022/11/01 05:03:01;;;;;;;16.92;9.82;;;;;;;13.03;100.00;100748.69;2088793;28;37801;-80
2022/11/01 05:04:03;;;;;;;17.48;10.30;;;;;;;12.99;100.00;100740.78;2080026;28;29113;-81
2022/11/01 05:05:11;;;;;;;16.00;9.55;;;;;;;12.98;100.00;100744.38;2079770;28;38574;-80
2022/11/01 05:06:15;;;;;;;16.17;9.50;;;;;;;12.97;100.00;100739.97;2080479;28;34548;-80
2022/11/01 05:07:17;;;;;;;19.45;9.45;;;;;;;12.98;100.00;100732.75;2080545;28;33957;-80
2022/11/01 05:08:19;;;;;;;18.20;9.50;;;;;;;13.04;100.00;100728.97;2087935;28;31214;-80
2022/11/01 05:09:20;;;;;;;15.52;9.68;;;;;;;13.06;100.00;100735.16;2087862;28;34351;-80